Terminal Aerodrome Forecast
Issued by NWS

Home | Current Version | Previous Version | Text Only | Print | Product List | Glossary On
Versions: 1 2 3 4 5 6 7 8 9 10 11 12 13
646
FTUS45 KVEF 200536
TAFDAG
TAF
KDAG 200536Z 2006/2106 25012KT P6SM SKC
     FM201600 31006KT P6SM SKC
     FM201900 06006KT P6SM SKC
     FM210200 VRB04KT P6SM SCT250=

USA.gov is the U.S. government's official web portal to all federal, state and local government web resources and services.